createdAt,value
2024-02-23T00:05:49.902Z,19.1
2024-02-23T00:15:49.048Z,19.1
2024-02-23T00:25:49.299Z,19.1
2024-02-23T00:35:48.442Z,19.1
2024-02-23T00:45:47.648Z,19.1
2024-02-23T00:55:46.835Z,19.1
2024-02-23T01:05:46.134Z,19.1
2024-02-23T01:15:45.151Z,19.1
2024-02-23T01:25:44.354Z,19.1
2024-02-23T01:35:43.589Z,19.1
2024-02-23T01:45:42.733Z,19.1
2024-02-23T01:55:41.888Z,19.1
2024-02-23T02:05:41.272Z,19.1
2024-02-23T02:15:40.242Z,19.1
2024-02-23T02:25:39.449Z,19.1
2024-02-23T02:35:38.632Z,19.1
2024-02-23T02:45:37.791Z,19.1
2024-02-23T02:55:36.974Z,19.1
2024-02-23T03:06:04.443Z,19.1
2024-02-23T03:16:03.549Z,19.1
2024-02-23T03:26:02.765Z,19.1
2024-02-23T03:36:01.892Z,19.1
2024-02-23T03:46:01.126Z,19.1
2024-02-23T03:56:00.287Z,19.1
2024-02-23T04:05:59.481Z,19.1
2024-02-23T04:15:58.786Z,19.1
2024-02-23T04:25:58.024Z,19.1
2024-02-23T04:35:57.250Z,19.1
2024-02-23T04:45:56.532Z,19.1
2024-02-23T04:55:55.767Z,19
2024-02-23T05:05:55.181Z,19.1
2024-02-23T05:15:54.115Z,19
2024-02-23T05:25:53.359Z,19
2024-02-23T05:35:53.687Z,19
2024-02-23T05:45:52.888Z,19.1
2024-02-23T05:55:52.091Z,19.1
2024-02-23T06:05:51.354Z,19.1
2024-02-23T06:15:50.401Z,19.1
2024-02-23T06:25:49.770Z,19.1
2024-02-23T06:35:48.787Z,19.2
2024-02-23T06:45:47.978Z,19.3
2024-02-23T06:55:47.122Z,19.3
2024-02-23T07:05:46.582Z,19.3
2024-02-23T07:15:45.476Z,19.4
2024-02-23T07:25:44.684Z,19.4
2024-02-23T07:35:43.928Z,19.4
2024-02-23T07:45:43.043Z,19.5
2024-02-23T07:55:42.202Z,19.5
2024-02-23T08:05:41.434Z,19.5
2024-02-23T08:15:40.559Z,19.6
2024-02-23T08:25:39.858Z,19.6
2024-02-23T08:35:39.065Z,19.6
2024-02-23T08:45:38.127Z,19.7
2024-02-23T08:55:37.288Z,19.7
2024-02-23T09:06:04.657Z,19.8
2024-02-23T09:16:03.669Z,19.8
2024-02-23T09:26:02.930Z,19.8
2024-02-23T09:36:02.043Z,19.8
2024-02-23T09:46:01.236Z,19.9
2024-02-23T09:56:00.402Z,19.8
2024-02-23T10:05:59.684Z,19.8
2024-02-23T10:16:05.108Z,19.8
2024-02-23T10:25:58.239Z,19.8
2024-02-23T10:35:57.464Z,19.8
2024-02-23T10:45:56.710Z,19.8
2024-02-23T10:55:56.002Z,19.8
2024-02-23T11:05:55.175Z,19.9
2024-02-23T11:15:54.325Z,19.9
2024-02-23T11:25:53.522Z,19.9
2024-02-23T11:35:52.664Z,19.9
2024-02-23T11:45:51.856Z,19.9
2024-02-23T11:55:51.007Z,19.9
2024-02-23T12:05:50.244Z,19.9
2024-02-23T12:15:49.369Z,19.9
2024-02-23T12:25:48.575Z,19.9
2024-02-23T12:35:47.769Z,19.8
2024-02-23T12:45:46.929Z,19.8
2024-02-23T12:55:46.084Z,19.8
2024-02-23T13:05:45.303Z,19.8
2024-02-23T13:15:45.340Z,19.8
2024-02-23T13:25:44.538Z,19.8
2024-02-23T13:35:43.724Z,19.8
2024-02-23T13:45:42.895Z,19.8
2024-02-23T13:55:42.069Z,19.8
2024-02-23T14:05:41.299Z,19.8
2024-02-23T14:15:40.411Z,19.8
2024-02-23T14:25:39.610Z,19.8
2024-02-23T14:35:38.787Z,19.7
2024-02-23T14:45:37.971Z,19.7
2024-02-23T14:55:37.179Z,19.7
2024-02-23T15:06:04.664Z,19.7
2024-02-23T15:16:03.791Z,19.7
2024-02-23T15:26:06.936Z,19.7
2024-02-23T15:36:02.145Z,19.6
2024-02-23T15:46:01.361Z,19.6
2024-02-23T15:56:00.546Z,19.6
2024-02-23T16:05:59.902Z,19.6
2024-02-23T16:15:58.968Z,19.6
2024-02-23T16:25:59.794Z,19.6
2024-02-23T16:35:58.945Z,19.6
2024-02-23T16:45:58.075Z,19.6
2024-02-23T16:55:57.253Z,19.7
2024-02-23T17:05:56.515Z,19.6
2024-02-23T17:15:55.727Z,19.6
2024-02-23T17:25:54.801Z,19.6
2024-02-23T17:35:54.011Z,19.6
2024-02-23T17:45:53.166Z,19.7
2024-02-23T17:55:52.322Z,19.6
2024-02-23T18:05:51.572Z,19.6
2024-02-23T18:15:50.681Z,19.7
2024-02-23T18:25:49.889Z,19.7
2024-02-23T18:35:49.095Z,19.7
2024-02-23T18:45:48.256Z,19.7
2024-02-23T18:55:47.415Z,19.7
2024-02-23T19:05:46.789Z,19.7
2024-02-23T19:15:45.789Z,19.7
2024-02-23T19:25:44.992Z,19.7
2024-02-23T19:35:44.229Z,19.7
2024-02-23T19:45:43.416Z,19.7
2024-02-23T19:55:42.509Z,19.7
2024-02-23T20:05:41.757Z,19.7
2024-02-23T20:15:40.878Z,19.7
2024-02-23T20:25:40.082Z,19.7
2024-02-23T20:35:39.287Z,19.7
2024-02-23T20:45:38.450Z,19.7
2024-02-23T20:55:37.665Z,19.7
2024-02-23T21:06:06.766Z,19.7
2024-02-23T21:16:03.948Z,19.7
2024-02-23T21:26:03.186Z,19.7
2024-02-23T21:36:02.296Z,19.7
2024-02-23T21:46:01.507Z,19.7
2024-02-23T21:56:00.730Z,19.7
2024-02-23T22:05:59.945Z,19.7
2024-02-23T22:15:59.136Z,19.7
2024-02-23T22:25:58.437Z,19.8
2024-02-23T22:35:57.709Z,19.7
2024-02-23T22:45:56.937Z,19.7
2024-02-23T22:55:56.177Z,19.7
2024-02-23T23:05:55.479Z,19.7
2024-02-23T23:15:54.541Z,19.7
2024-02-23T23:25:53.750Z,19.7
2024-02-23T23:35:52.909Z,19.7
2024-02-23T23:45:52.138Z,19.7
2024-02-23T23:55:51.267Z,19.7
